Time;durP1;ratioP1;P1;durP2;ratioP2;P2;SDS_P1;SDS_P2;PMS_P1;PMS_P2;Temp;Humidity;BMP_temperature;BMP_pressure;BME280_temperature;BME280_humidity;BME280_pressure;Samples;Min_cycle;Max_cycle;Signal;HPM_P1;HPM_P2
2022/08/16 00:02:11;;;;;;;;;;;25.50;99.90;;;;;;5080476;28;19928;-68
2022/08/16 00:04:37;;;;;;;;;;;25.50;99.90;;;;;;5079549;28;20002;-69
2022/08/16 00:07:03;;;;;;;;;;;25.50;99.90;;;;;;5082079;28;19916;-69
2022/08/16 00:09:28;;;;;;;;;;;25.40;99.90;;;;;;5080462;28;19920;-68
2022/08/16 00:11:54;;;;;;;;;;;25.60;99.90;;;;;;5081505;28;19917;-69
2022/08/16 00:14:22;;;;;;;;;;;25.60;99.90;;;;;;5085967;28;19912;-69
2022/08/16 00:16:48;;;;;;;;;;;25.70;99.90;;;;;;5080505;28;20015;-68
2022/08/16 00:19:22;;;;;;;;;;;25.80;99.90;;;;;;5078110;28;20353;-69
2022/08/16 00:21:48;;;;;;;;;;;25.80;99.90;;;;;;5077423;28;20004;-70
2022/08/16 00:24:15;;;;;;;;;;;25.80;99.90;;;;;;5081953;28;19968;-70
2022/08/16 00:26:40;;;;;;;;;;;25.70;99.90;;;;;;5077111;28;19920;-70
2022/08/16 00:29:06;;;;;;;;;;;25.50;99.90;;;;;;5077701;28;20436;-70
2022/08/16 00:31:32;;;;;;;;;;;25.40;99.90;;;;;;5078621;28;20284;-71
2022/08/16 00:33:58;;;;;;;;;;;25.30;99.90;;;;;;5082772;28;19922;-70
2022/08/16 00:36:23;;;;;;;;;;;25.40;99.90;;;;;;5078965;28;20282;-70
2022/08/16 00:38:49;;;;;;;;;;;25.30;99.90;;;;;;5077860;28;19927;-70
2022/08/16 00:41:15;;;;;;;;;;;25.20;99.90;;;;;;5076431;28;19917;-70
2022/08/16 00:43:40;;;;;;;;;;;25.30;99.90;;;;;;5073856;28;19926;-70
2022/08/16 00:46:06;;;;;;;;;;;25.40;99.90;;;;;;5096837;28;19912;-69
2022/08/16 00:48:32;;;;;;;;;;;25.60;99.90;;;;;;5074336;28;19986;-70
2022/08/16 00:50:58;;;;;;;;;;;25.60;99.90;;;;;;5076940;28;19917;-70
2022/08/16 00:53:24;;;;;;;;;;;25.60;99.90;;;;;;5086839;28;19920;-68
2022/08/16 00:55:52;;;;;;;;;;;25.60;99.90;;;;;;5075698;28;19913;-68
2022/08/16 00:58:18;;;;;;;;;;;25.70;99.90;;;;;;5075970;28;19964;-70
2022/08/16 01:00:46;;;;;;;;;;;25.90;99.90;;;;;;5066142;28;19921;-68
2022/08/16 01:03:13;;;;;;;;;;;25.80;99.90;;;;;;5076128;28;19918;-71
2022/08/16 01:05:39;;;;;;;;;;;25.70;99.90;;;;;;5057918;28;19970;-69
2022/08/16 01:08:05;;;;;;;;;;;25.60;99.90;;;;;;5077509;28;19912;-69
2022/08/16 01:10:32;;;;;;;;;;;25.50;99.90;;;;;;5080539;28;19977;-69
2022/08/16 01:12:59;;;;;;;;;;;25.40;99.90;;;;;;5080966;28;20393;-70
2022/08/16 01:15:25;;;;;;;;;;;25.40;99.90;;;;;;5082789;28;20250;-69
2022/08/16 01:17:51;;;;;;;;;;;25.30;99.90;;;;;;5082535;28;21858;-69
2022/08/16 01:20:19;;;;;;;;;;;25.10;99.90;;;;;;5079242;28;19963;-70
2022/08/16 01:22:57;;;;;;;;;;;25.00;99.90;;;;;;5072921;28;20406;-70
2022/08/16 01:25:28;;;;;;;;;;;24.40;99.90;;;;;;5076308;28;19912;-68
2022/08/16 01:27:55;;;;;;;;;;;24.00;99.90;;;;;;5087363;28;19923;-70
2022/08/16 01:30:23;;;;;;;;;;;23.50;99.90;;;;;;5074615;28;19912;-69
2022/08/16 01:32:50;;;;;;;;;;;22.90;99.90;;;;;;5079742;28;19916;-70
2022/08/16 01:35:24;;;;;;;;;;;22.50;99.90;;;;;;5074464;28;19919;-69
2022/08/16 01:37:51;;;;;;;;;;;22.30;99.90;;;;;;5077171;28;19916;-69
2022/08/16 01:40:18;;;;;;;;;;;22.10;99.90;;;;;;5075096;28;19930;-70
2022/08/16 01:42:45;;;;;;;;;;;22.20;99.90;;;;;;5076419;28;20334;-68
2022/08/16 01:45:11;;;;;;;;;;;22.30;99.90;;;;;;5095775;28;19934;-70
2022/08/16 01:47:38;;;;;;;;;;;22.70;99.90;;;;;;5075641;28;19912;-72
2022/08/16 01:50:05;;;;;;;;;;;23.10;99.90;;;;;;5084419;28;19920;-73
2022/08/16 01:52:31;;;;;;;;;;;22.80;99.90;;;;;;5076960;28;19919;-72
2022/08/16 01:54:57;;;;;;;;;;;22.50;99.90;;;;;;5073622;28;19912;-73
2022/08/16 01:57:22;;;;;;;;;;;22.20;99.90;;;;;;5075065;28;19919;-73
2022/08/16 01:59:48;;;;;;;;;;;22.10;99.90;;;;;;5077949;28;20450;-75
2022/08/16 02:02:14;;;;;;;;;;;22.10;99.90;;;;;;5089045;28;19912;-73
2022/08/16 02:04:39;;;;;;;;;;;22.20;99.90;;;;;;5078275;28;19913;-73
2022/08/16 02:07:07;;;;;;;;;;;22.20;99.90;;;;;;5092916;27;19960;-73
2022/08/16 02:09:34;;;;;;;;;;;22.10;99.90;;;;;;5076762;28;20575;-72
2022/08/16 02:11:59;;;;;;;;;;;22.00;99.90;;;;;;5059471;28;19912;-73
2022/08/16 02:14:27;;;;;;;;;;;21.80;99.90;;;;;;5075910;28;19913;-73
2022/08/16 02:16:53;;;;;;;;;;;21.70;99.90;;;;;;5092237;28;19924;-73
2022/08/16 02:19:19;;;;;;;;;;;21.50;99.90;;;;;;5060778;28;19970;-73
2022/08/16 02:21:47;;;;;;;;;;;21.50;99.90;;;;;;5078263;28;20267;-72
2022/08/16 02:24:13;;;;;;;;;;;21.40;99.90;;;;;;5106258;28;19923;-73
2022/08/16 02:26:39;;;;;;;;;;;21.20;99.90;;;;;;5080965;28;19912;-71
2022/08/16 02:29:05;;;;;;;;;;;21.10;99.90;;;;;;5084506;28;19920;-73
2022/08/16 02:31:30;;;;;;;;;;;21.20;99.90;;;;;;5077629;28;19912;-71
2022/08/16 02:33:56;;;;;;;;;;;21.20;99.90;;;;;;5083528;28;19920;-73
2022/08/16 02:36:21;;;;;;;;;;;21.20;99.90;;;;;;5089174;28;19963;-71
2022/08/16 02:38:47;;;;;;;;;;;21.30;99.90;;;;;;5087447;28;19927;-71
2022/08/16 02:41:13;;;;;;;;;;;21.20;99.90;;;;;;5087576;28;19916;-72
2022/08/16 02:43:38;;;;;;;;;;;21.40;99.90;;;;;;5088634;28;19919;-73
2022/08/16 02:46:05;;;;;;;;;;;21.40;99.90;;;;;;5113238;28;19912;-72
2022/08/16 02:48:30;;;;;;;;;;;21.50;99.90;;;;;;5079344;28;19912;-72
2022/08/16 02:50:57;;;;;;;;;;;21.50;99.90;;;;;;5075223;28;19916;-72
2022/08/16 02:53:23;;;;;;;;;;;21.40;99.90;;;;;;5062001;28;19918;-71
2022/08/16 02:55:48;;;;;;;;;;;21.40;99.90;;;;;;5073976;28;19912;-71
2022/08/16 02:58:14;;;;;;;;;;;21.20;99.90;;;;;;5073860;28;19923;-71
2022/08/16 03:00:40;;;;;;;;;;;21.10;99.90;;;;;;5078352;28;19968;-72
2022/08/16 03:03:05;;;;;;;;;;;21.10;99.90;;;;;;5081850;28;19979;-71
2022/08/16 03:05:32;;;;;;;;;;;21.20;99.90;;;;;;5077813;28;19966;-71
2022/08/16 03:07:58;;;;;;;;;;;21.30;99.90;;;;;;5085239;28;19920;-71
2022/08/16 03:10:24;;;;;;;;;;;21.40;99.90;;;;;;5075103;28;20246;-71
2022/08/16 03:12:49;;;;;;;;;;;21.30;99.90;;;;;;5078193;28;19924;-71
2022/08/16 03:15:15;;;;;;;;;;;21.40;99.90;;;;;;5077345;28;20357;-71
2022/08/16 03:17:41;;;;;;;;;;;21.30;99.90;;;;;;5072807;28;19920;-71
2022/08/16 03:20:08;;;;;;;;;;;21.30;99.90;;;;;;5076713;28;19912;-70
2022/08/16 03:22:34;;;;;;;;;;;21.30;99.90;;;;;;5077440;28;20460;-72
2022/08/16 03:25:03;;;;;;;;;;;21.30;99.90;;;;;;5077362;28;19962;-70
2022/08/16 03:27:30;;;;;;;;;;;21.30;99.90;;;;;;5079829;28;19919;-72
2022/08/16 03:29:56;;;;;;;;;;;21.30;99.90;;;;;;5075504;28;19912;-73
2022/08/16 03:32:21;;;;;;;;;;;21.20;99.90;;;;;;5078436;28;20018;-72
2022/08/16 03:34:47;;;;;;;;;;;21.20;99.90;;;;;;5078363;28;19966;-72
2022/08/16 03:37:13;;;;;;;;;;;21.20;99.90;;;;;;5078361;28;20246;-72
2022/08/16 03:39:38;;;;;;;;;;;21.20;99.90;;;;;;5063058;28;20003;-72
2022/08/16 03:42:04;;;;;;;;;;;21.10;99.90;;;;;;5062574;28;19977;-72
2022/08/16 03:44:31;;;;;;;;;;;21.10;99.90;;;;;;5091223;28;20342;-70
2022/08/16 03:46:57;;;;;;;;;;;21.00;99.90;;;;;;5098599;28;19916;-71
2022/08/16 03:49:23;;;;;;;;;;;21.00;99.90;;;;;;5078438;28;19935;-72
2022/08/16 03:51:48;;;;;;;;;;;21.00;99.90;;;;;;5076424;28;20357;-72
2022/08/16 03:54:14;;;;;;;;;;;21.00;99.90;;;;;;5081545;28;19919;-71
2022/08/16 03:56:40;;;;;;;;;;;21.00;99.90;;;;;;5085485;28;19935;-71
2022/08/16 03:59:05;;;;;;;;;;;21.10;99.90;;;;;;5079781;28;19924;-71
2022/08/16 04:01:31;;;;;;;;;;;21.10;99.90;;;;;;5075759;28;19999;-73
2022/08/16 04:03:56;;;;;;;;;;;21.10;99.90;;;;;;5102578;28;20014;-73
2022/08/16 04:06:22;;;;;;;;;;;21.10;99.90;;;;;;5072253;28;20364;-72
2022/08/16 04:08:48;;;;;;;;;;;21.00;99.90;;;;;;5076290;28;19924;-71
2022/08/16 04:11:14;;;;;;;;;;;21.00;99.90;;;;;;5082572;28;19998;-72
2022/08/16 04:13:39;;;;;;;;;;;21.10;99.90;;;;;;5082531;28;19919;-73
2022/08/16 04:16:05;;;;;;;;;;;21.20;99.90;;;;;;5095604;28;20003;-71
2022/08/16 04:18:31;;;;;;;;;;;21.30;99.90;;;;;;5079515;28;19977;-72
2022/08/16 04:20:56;;;;;;;;;;;21.40;99.90;;;;;;5095579;28;19915;-72
2022/08/16 04:23:22;;;;;;;;;;;21.50;99.90;;;;;;5077757;28;19924;-72
2022/08/16 04:25:49;;;;;;;;;;;21.60;99.90;;;;;;5079877;28;20393;-71
2022/08/16 04:28:15;;;;;;;;;;;21.60;99.90;;;;;;5092419;28;19974;-72
2022/08/16 04:30:40;;;;;;;;;;;21.60;99.90;;;;;;5092771;28;19916;-72
2022/08/16 04:33:07;;;;;;;;;;;21.60;99.90;;;;;;5092828;28;19999;-71
2022/08/16 04:35:32;;;;;;;;;;;21.60;99.90;;;;;;5075320;28;19918;-72
2022/08/16 04:37:58;;;;;;;;;;;21.50;99.90;;;;;;5092427;28;20369;-73
2022/08/16 04:40:25;;;;;;;;;;;21.50;99.90;;;;;;5094477;28;19912;-72
2022/08/16 04:42:51;;;;;;;;;;;21.60;99.90;;;;;;5093995;28;19937;-72
2022/08/16 04:45:17;;;;;;;;;;;21.60;99.90;;;;;;5071050;28;19919;-72
2022/08/16 04:47:43;;;;;;;;;;;21.70;99.90;;;;;;5089736;28;19912;-71
2022/08/16 04:50:11;;;;;;;;;;;21.90;99.90;;;;;;5095376;28;19912;-71
2022/08/16 04:52:37;;;;;;;;;;;22.00;99.90;;;;;;5070986;28;20011;-71
2022/08/16 04:55:13;;;;;;;;;;;22.00;99.90;;;;;;5086648;28;19944;-72
2022/08/16 04:57:39;;;;;;;;;;;22.10;99.90;;;;;;5102115;28;20277;-73
2022/08/16 05:00:07;;;;;;;;;;;22.10;99.90;;;;;;5098514;28;19912;-75
2022/08/16 05:02:33;;;;;;;;;;;22.10;99.90;;;;;;5098397;28;19919;-71
2022/08/16 05:04:58;;;;;;;;;;;22.10;99.90;;;;;;5101086;28;20329;-71
2022/08/16 05:07:24;;;;;;;;;;;22.00;99.90;;;;;;5091724;28;20230;-72
2022/08/16 05:09:50;;;;;;;;;;;21.90;99.90;;;;;;5107304;28;19912;-72
2022/08/16 05:12:15;;;;;;;;;;;21.90;99.90;;;;;;5090541;28;19912;-72
2022/08/16 05:14:41;;;;;;;;;;;21.90;99.90;;;;;;5087870;28;19920;-73
2022/08/16 05:17:06;;;;;;;;;;;21.90;99.90;;;;;;5087550;28;20370;-72
2022/08/16 05:19:32;;;;;;;;;;;21.90;99.90;;;;;;5089729;28;19920;-70
2022/08/16 05:21:58;;;;;;;;;;;21.80;99.90;;;;;;5078592;28;19920;-71
2022/08/16 05:24:23;;;;;;;;;;;21.90;99.90;;;;;;5091492;28;19962;-72
2022/08/16 05:26:49;;;;;;;;;;;21.80;99.90;;;;;;5091002;28;19912;-75
2022/08/16 05:29:15;;;;;;;;;;;21.70;99.90;;;;;;5094088;28;20400;-73
2022/08/16 05:31:41;;;;;;;;;;;21.80;99.90;;;;;;5095005;28;19935;-72
2022/08/16 05:34:06;;;;;;;;;;;21.90;99.90;;;;;;5091252;28;20368;-71
2022/08/16 05:36:33;;;;;;;;;;;21.90;99.90;;;;;;5092482;28;20025;-76
2022/08/16 05:38:59;;;;;;;;;;;22.00;99.90;;;;;;5079827;28;19963;-69
2022/08/16 05:41:24;;;;;;;;;;;22.00;99.90;;;;;;5090278;28;19966;-69
2022/08/16 05:43:50;;;;;;;;;;;22.10;99.90;;;;;;5086302;28;19913;-68
2022/08/16 05:46:18;;;;;;;;;;;22.20;99.90;;;;;;5090003;28;20388;-68
2022/08/16 05:48:44;;;;;;;;;;;22.20;99.90;;;;;;5092244;28;20003;-67
2022/08/16 05:51:10;;;;;;;;;;;22.20;99.90;;;;;;5103641;28;19912;-68
2022/08/16 05:53:35;;;;;;;;;;;22.30;99.90;;;;;;5095803;28;20276;-69
2022/08/16 05:56:01;;;;;;;;;;;22.30;99.90;;;;;;5103821;28;19977;-69
2022/08/16 05:58:27;;;;;;;;;;;22.40;99.90;;;;;;5074110;28;19922;-69
2022/08/16 06:00:53;;;;;;;;;;;22.30;99.90;;;;;;5105658;28;19911;-69
2022/08/16 06:03:18;;;;;;;;;;;22.20;99.90;;;;;;5105910;28;19918;-71
2022/08/16 06:05:44;;;;;;;;;;;22.10;99.90;;;;;;5092725;28;19922;-69
2022/08/16 06:08:09;;;;;;;;;;;21.90;99.90;;;;;;5104824;28;20330;-69
2022/08/16 06:10:35;;;;;;;;;;;22.00;99.90;;;;;;5085606;28;19911;-69
2022/08/16 06:13:00;;;;;;;;;;;22.00;99.90;;;;;;5107932;28;19908;-70
2022/08/16 06:15:26;;;;;;;;;;;22.20;99.90;;;;;;5097917;28;19912;-70
2022/08/16 06:17:52;;;;;;;;;;;22.20;99.90;;;;;;5099497;28;19934;-68
2022/08/16 06:20:22;;;;;;;;;;;22.30;99.90;;;;;;5091273;28;19916;-69
2022/08/16 06:22:48;;;;;;;;;;;22.40;99.90;;;;;;5102947;28;19986;-68
2022/08/16 06:25:14;;;;;;;;;;;22.60;99.90;;;;;;5095921;28;19987;-68
2022/08/16 06:27:40;;;;;;;;;;;22.80;99.90;;;;;;5107450;28;19995;-69
2022/08/16 06:30:07;;;;;;;;;;;23.10;99.90;;;;;;5100600;28;20399;-69
2022/08/16 06:32:32;;;;;;;;;;;23.20;99.90;;;;;;5108105;28;19918;-67
2022/08/16 06:34:58;;;;;;;;;;;23.30;99.90;;;;;;5106799;28;19915;-68
2022/08/16 06:37:24;;;;;;;;;;;23.40;99.90;;;;;;5111353;28;20287;-71
2022/08/16 06:39:49;;;;;;;;;;;23.50;99.90;;;;;;5092631;28;19916;-70
2022/08/16 06:42:15;;;;;;;;;;;23.50;99.90;;;;;;5110498;28;19914;-68
2022/08/16 06:44:40;;;;;;;;;;;23.50;99.90;;;;;;5096857;28;20222;-70
2022/08/16 06:47:06;;;;;;;;;;;23.60;99.90;;;;;;5097015;28;19958;-68
2022/08/16 06:49:31;;;;;;;;;;;23.70;99.90;;;;;;5117322;27;20398;-69
2022/08/16 06:51:57;;;;;;;;;;;23.90;99.90;;;;;;5095780;28;19916;-68
2022/08/16 06:54:22;;;;;;;;;;;23.90;99.90;;;;;;5092830;28;19912;-71
2022/08/16 06:56:48;;;;;;;;;;;24.00;99.90;;;;;;5097765;28;19909;-68
2022/08/16 06:59:14;;;;;;;;;;;23.90;99.90;;;;;;5086206;28;20035;-70
2022/08/16 07:01:40;;;;;;;;;;;23.90;99.90;;;;;;5097095;28;19945;-72
2022/08/16 07:04:06;;;;;;;;;;;24.00;99.90;;;;;;5091816;28;19915;-70
2022/08/16 07:06:31;;;;;;;;;;;24.30;99.90;;;;;;5107922;28;19984;-69
2022/08/16 07:08:57;;;;;;;;;;;24.40;99.90;;;;;;5099141;28;19913;-69
2022/08/16 07:11:25;;;;;;;;;;;24.40;99.90;;;;;;5104323;28;19908;-68
2022/08/16 07:13:51;;;;;;;;;;;24.40;99.90;;;;;;5102346;28;19938;-68
2022/08/16 07:16:17;;;;;;;;;;;24.20;99.90;;;;;;5105338;28;20381;-70
2022/08/16 07:18:43;;;;;;;;;;;24.30;99.90;;;;;;5099551;28;19919;-67
2022/08/16 07:21:10;;;;;;;;;;;24.40;99.90;;;;;;5101247;28;19943;-69
2022/08/16 07:23:36;;;;;;;;;;;24.40;99.90;;;;;;5108711;28;19923;-71
2022/08/16 07:26:03;;;;;;;;;;;24.50;99.90;;;;;;5099727;28;19912;-68
2022/08/16 07:28:29;;;;;;;;;;;24.60;99.90;;;;;;5107235;28;19994;-71
2022/08/16 07:30:54;;;;;;;;;;;24.60;99.90;;;;;;5091384;28;20353;-68
2022/08/16 07:33:20;;;;;;;;;;;24.70;99.90;;;;;;5104154;28;20297;-68
2022/08/16 07:35:46;;;;;;;;;;;24.70;99.90;;;;;;5093551;28;20430;-68
2022/08/16 07:38:11;;;;;;;;;;;24.80;99.90;;;;;;5106291;28;19962;-69
2022/08/16 07:40:37;;;;;;;;;;;25.00;99.90;;;;;;5106798;28;20008;-71
2022/08/16 07:43:04;;;;;;;;;;;25.00;99.90;;;;;;5110655;28;19931;-70
2022/08/16 07:45:29;;;;;;;;;;;24.80;99.90;;;;;;5103746;28;19952;-70
2022/08/16 07:47:55;;;;;;;;;;;24.70;99.90;;;;;;5108516;28;20006;-69
2022/08/16 07:50:21;;;;;;;;;;;24.90;99.90;;;;;;5092043;28;19916;-67
2022/08/16 07:52:47;;;;;;;;;;;25.10;99.90;;;;;;5106820;28;19919;-69
2022/08/16 07:55:14;;;;;;;;;;;25.30;99.90;;;;;;5100176;28;19912;-70
2022/08/16 07:57:41;;;;;;;;;;;25.50;99.90;;;;;;5114807;28;19915;-69
2022/08/16 08:00:07;;;;;;;;;;;25.60;99.90;;;;;;5103159;28;19912;-68
2022/08/16 08:02:33;;;;;;;;;;;25.50;99.90;;;;;;5103957;28;19947;-70
2022/08/16 08:04:58;;;;;;;;;;;25.40;99.90;;;;;;5108153;28;19911;-71
2022/08/16 08:07:24;;;;;;;;;;;25.50;99.90;;;;;;5114499;28;19914;-70
2022/08/16 08:09:50;;;;;;;;;;;25.60;99.90;;;;;;5107261;28;19912;-69
2022/08/16 08:12:19;;;;;;;;;;;25.70;99.90;;;;;;5095948;28;19984;-68
2022/08/16 08:14:45;;;;;;;;;;;25.80;99.90;;;;;;5098798;28;20031;-71
2022/08/16 08:17:11;;;;;;;;;;;25.80;99.90;;;;;;5113854;28;19972;-70
2022/08/16 08:19:36;;;;;;;;;;;25.90;99.90;;;;;;5102678;28;19921;-69
2022/08/16 08:22:03;;;;;;;;;;;26.10;99.90;;;;;;5103696;28;19916;-69
2022/08/16 08:24:31;;;;;;;;;;;26.10;99.90;;;;;;5109509;28;20346;-69
2022/08/16 08:26:58;;;;;;;;;;;26.20;99.90;;;;;;5110478;28;19919;-72
2022/08/16 08:29:24;;;;;;;;;;;26.30;99.90;;;;;;5105308;28;20407;-71
2022/08/16 08:31:50;;;;;;;;;;;26.30;99.90;;;;;;5098138;28;19918;-70
2022/08/16 08:34:18;;;;;;;;;;;26.40;99.90;;;;;;5107858;28;20198;-70
2022/08/16 08:36:43;;;;;;;;;;;26.60;99.90;;;;;;5107430;28;19952;-68
2022/08/16 08:39:09;;;;;;;;;;;26.60;99.90;;;;;;5109461;28;19924;-71
2022/08/16 08:41:35;;;;;;;;;;;26.50;99.90;;;;;;5108273;28;19918;-69
2022/08/16 08:44:00;;;;;;;;;;;26.50;99.90;;;;;;5108955;28;20396;-71
2022/08/16 08:46:27;;;;;;;;;;;26.40;99.90;;;;;;5109603;28;19926;-71
2022/08/16 08:48:53;;;;;;;;;;;26.10;99.90;;;;;;5092952;28;19916;-71
2022/08/16 08:51:19;;;;;;;;;;;25.80;99.90;;;;;;5109476;28;19911;-71
2022/08/16 08:53:44;;;;;;;;;;;25.70;99.90;;;;;;5109852;28;19908;-69
2022/08/16 08:56:11;;;;;;;;;;;25.60;99.90;;;;;;5102487;28;20032;-68
2022/08/16 08:58:37;;;;;;;;;;;25.40;99.90;;;;;;5099797;28;20439;-69
2022/08/16 09:01:06;;;;;;;;;;;25.40;99.90;;;;;;5097873;28;20081;-71
2022/08/16 09:03:36;;;;;;;;;;;25.30;99.90;;;;;;5085654;28;19920;-70
2022/08/16 09:06:03;;;;;;;;;;;25.50;99.90;;;;;;5106954;28;20036;-69
2022/08/16 09:08:30;;;;;;;;;;;25.50;99.90;;;;;;5099198;28;19919;-69
2022/08/16 09:10:56;;;;;;;;;;;25.50;99.90;;;;;;5104242;28;20050;-69
2022/08/16 09:13:23;;;;;;;;;;;25.60;99.90;;;;;;5100615;28;19920;-68
2022/08/16 09:15:49;;;;;;;;;;;25.70;99.90;;;;;;5102258;28;19918;-68
2022/08/16 09:18:16;;;;;;;;;;;25.70;99.90;;;;;;5091042;28;20012;-71
2022/08/16 09:20:43;;;;;;;;;;;25.80;99.90;;;;;;5098653;28;19908;-69
2022/08/16 09:23:09;;;;;;;;;;;25.80;99.90;;;;;;5106945;28;19915;-71
2022/08/16 09:25:34;;;;;;;;;;;25.80;99.90;;;;;;5100255;28;20280;-71
2022/08/16 09:28:00;;;;;;;;;;;25.90;99.90;;;;;;5093582;28;20007;-72
2022/08/16 09:30:26;;;;;;;;;;;25.90;99.90;;;;;;5101443;28;20319;-68
2022/08/16 09:32:53;;;;;;;;;;;25.80;99.90;;;;;;5103086;28;19908;-68
2022/08/16 09:35:21;;;;;;;;;;;25.70;99.90;;;;;;5079145;28;19979;-73
2022/08/16 09:37:47;;;;;;;;;;;25.50;99.90;;;;;;5093778;28;19912;-71
2022/08/16 09:40:13;;;;;;;;;;;25.40;99.90;;;;;;5103706;28;19926;-68
2022/08/16 09:42:39;;;;;;;;;;;25.50;99.90;;;;;;5097599;28;20369;-71
2022/08/16 09:45:07;;;;;;;;;;;25.60;99.90;;;;;;5105771;28;19915;-68
2022/08/16 09:47:38;;;;;;;;;;;25.60;99.90;;;;;;5108687;28;19917;-71
2022/08/16 09:50:05;;;;;;;;;;;25.70;99.90;;;;;;5105713;28;19919;-70
2022/08/16 09:52:31;;;;;;;;;;;25.70;99.90;;;;;;5104287;28;19911;-70
2022/08/16 09:54:56;;;;;;;;;;;25.70;99.90;;;;;;5099550;28;20327;-71
2022/08/16 09:57:22;;;;;;;;;;;25.80;99.90;;;;;;5107678;28;19914;-70
2022/08/16 09:59:47;;;;;;;;;;;25.70;99.90;;;;;;5101426;28;20311;-69
2022/08/16 10:02:13;;;;;;;;;;;25.70;99.90;;;;;;5106038;28;19919;-70
2022/08/16 10:04:39;;;;;;;;;;;25.70;99.90;;;;;;5108011;28;19977;-68
2022/08/16 10:07:04;;;;;;;;;;;25.80;99.90;;;;;;5112014;28;19907;-70
2022/08/16 10:09:30;;;;;;;;;;;25.90;99.90;;;;;;5101353;28;19923;-70
2022/08/16 10:14:40;;;;;;;;;;;26.10;99.90;;;;;;5100122;28;19922;-69
2022/08/16 10:17:06;;;;;;;;;;;26.20;99.90;;;;;;5102910;28;19911;-68
2022/08/16 10:19:32;;;;;;;;;;;26.30;99.90;;;;;;5100661;28;19973;-69
2022/08/16 10:21:58;;;;;;;;;;;26.40;99.90;;;;;;5103230;28;19924;-71
2022/08/16 10:24:24;;;;;;;;;;;26.30;99.90;;;;;;5105509;28;19984;-71
2022/08/16 10:26:51;;;;;;;;;;;26.20;99.90;;;;;;5096793;28;19912;-69
2022/08/16 10:29:17;;;;;;;;;;;26.20;99.90;;;;;;5106265;28;19912;-71
2022/08/16 10:31:43;;;;;;;;;;;26.10;99.90;;;;;;5088413;28;20412;-72
2022/08/16 10:34:08;;;;;;;;;;;26.10;99.90;;;;;;5102057;28;19920;-69
2022/08/16 10:36:34;;;;;;;;;;;26.00;99.90;;;;;;5101633;28;20459;-70
2022/08/16 10:39:00;;;;;;;;;;;25.90;99.90;;;;;;5102504;28;19951;-69
2022/08/16 10:41:25;;;;;;;;;;;25.90;99.90;;;;;;5103219;28;19939;-70
2022/08/16 10:43:51;;;;;;;;;;;25.90;99.90;;;;;;5111800;28;20007;-70
2022/08/16 10:46:17;;;;;;;;;;;26.10;99.90;;;;;;5090590;28;19912;-72
2022/08/16 10:48:43;;;;;;;;;;;26.20;99.90;;;;;;5091731;28;20316;-70
2022/08/16 10:51:09;;;;;;;;;;;26.00;99.90;;;;;;5099417;28;19915;-71
2022/08/16 10:53:35;;;;;;;;;;;25.90;99.90;;;;;;5088931;28;19974;-71
2022/08/16 10:56:02;;;;;;;;;;;26.00;99.90;;;;;;5091290;28;19919;-71
2022/08/16 10:58:29;;;;;;;;;;;26.10;99.90;;;;;;5097368;28;19916;-70
2022/08/16 11:00:54;;;;;;;;;;;26.10;99.90;;;;;;5086048;28;19939;-71
2022/08/16 11:03:20;;;;;;;;;;;26.10;99.90;;;;;;5089922;28;20349;-71
2022/08/16 11:05:46;;;;;;;;;;;26.00;99.90;;;;;;5090069;28;19911;-71
2022/08/16 11:08:12;;;;;;;;;;;26.10;99.90;;;;;;5089406;28;20445;-70
2022/08/16 11:10:42;;;;;;;;;;;26.20;99.90;;;;;;5093254;28;19919;-75
2022/08/16 11:13:09;;;;;;;;;;;26.20;99.90;;;;;;5110061;28;20375;-70
2022/08/16 11:15:35;;;;;;;;;;;26.20;99.90;;;;;;5099734;28;19965;-70
2022/08/16 11:18:01;;;;;;;;;;;26.20;99.90;;;;;;5108853;28;19920;-71
2022/08/16 11:20:27;;;;;;;;;;;26.30;99.90;;;;;;5106167;28;20376;-72
2022/08/16 11:22:53;;;;;;;;;;;26.20;99.90;;;;;;5100423;28;19916;-72
2022/08/16 11:25:20;;;;;;;;;;;26.30;99.90;;;;;;5097650;28;19916;-71
2022/08/16 11:27:46;;;;;;;;;;;26.30;99.90;;;;;;5107364;28;19956;-72
2022/08/16 11:30:13;;;;;;;;;;;26.30;99.90;;;;;;5104567;28;19911;-72
2022/08/16 11:32:39;;;;;;;;;;;26.30;99.90;;;;;;5103845;28;19922;-72
2022/08/16 11:35:10;;;;;;;;;;;26.30;99.90;;;;;;5105253;28;20347;-72
2022/08/16 11:37:36;;;;;;;;;;;26.40;99.90;;;;;;5084125;28;19912;-73
2022/08/16 11:40:03;;;;;;;;;;;26.40;99.90;;;;;;5091193;28;19924;-73
2022/08/16 11:42:29;;;;;;;;;;;26.50;99.90;;;;;;5085214;28;19958;-72
2022/08/16 11:44:54;;;;;;;;;;;26.60;99.90;;;;;;5089975;28;19916;-72
2022/08/16 11:47:20;;;;;;;;;;;26.70;99.90;;;;;;5104659;28;19972;-71
2022/08/16 11:49:46;;;;;;;;;;;26.60;99.90;;;;;;5101768;28;19933;-69
2022/08/16 11:52:11;;;;;;;;;;;26.60;99.90;;;;;;5083250;28;19970;-72
2022/08/16 11:54:37;;;;;;;;;;;26.60;99.90;;;;;;5093125;28;19950;-72
2022/08/16 11:57:03;;;;;;;;;;;26.70;99.90;;;;;;5091192;28;19912;-72
2022/08/16 11:59:29;;;;;;;;;;;26.70;99.90;;;;;;5098944;28;20360;-71
2022/08/16 12:01:55;;;;;;;;;;;26.70;99.90;;;;;;5093344;28;19919;-69
2022/08/16 12:04:21;;;;;;;;;;;26.80;99.90;;;;;;5071910;28;19912;-70
2022/08/16 12:06:47;;;;;;;;;;;26.80;99.90;;;;;;5093766;28;20358;-69
2022/08/16 12:09:13;;;;;;;;;;;26.80;99.90;;;;;;5087816;28;20023;-70
2022/08/16 12:11:38;;;;;;;;;;;26.70;99.90;;;;;;5104259;28;20337;-70
2022/08/16 12:14:04;;;;;;;;;;;26.80;99.90;;;;;;5096159;28;19927;-70
2022/08/16 12:16:30;;;;;;;;;;;26.90;99.90;;;;;;5085754;28;20427;-69
2022/08/16 12:18:55;;;;;;;;;;;26.80;99.90;;;;;;5071949;28;19916;-70
2022/08/16 12:21:21;;;;;;;;;;;26.70;99.90;;;;;;5093232;28;20006;-69
2022/08/16 12:23:47;;;;;;;;;;;26.70;99.90;;;;;;5079725;28;19920;-69
2022/08/16 12:26:12;;;;;;;;;;;26.70;99.90;;;;;;5090848;28;20589;-68
2022/08/16 12:28:38;;;;;;;;;;;27.00;99.90;;;;;;5078925;28;20397;-68
2022/08/16 12:31:04;;;;;;;;;;;27.00;99.90;;;;;;5099915;28;19916;-68
2022/08/16 12:33:31;;;;;;;;;;;27.00;99.90;;;;;;5086811;28;20281;-70
2022/08/16 12:35:56;;;;;;;;;;;27.00;99.90;;;;;;5084994;28;20058;-68
2022/08/16 12:38:22;;;;;;;;;;;27.00;99.90;;;;;;5087073;28;20367;-69
2022/08/16 12:40:49;;;;;;;;;;;26.80;99.90;;;;;;5087016;28;19921;-69
2022/08/16 12:43:16;;;;;;;;;;;26.80;99.90;;;;;;5077435;28;20003;-68
2022/08/16 12:45:44;;;;;;;;;;;26.80;99.90;;;;;;5101945;28;19919;-70
2022/08/16 12:50:55;;;;;;;;;;;26.80;99.90;;;;;;5098896;28;19922;-71
2022/08/16 12:53:20;;;;;;;;;;;26.80;99.90;;;;;;5109322;28;19919;-69
2022/08/16 12:55:47;;;;;;;;;;;26.90;99.90;;;;;;5100054;28;19913;-68
2022/08/16 12:58:13;;;;;;;;;;;26.80;99.90;;;;;;5070560;28;19916;-69
2022/08/16 13:00:39;;;;;;;;;;;26.90;99.90;;;;;;5101790;28;20276;-69
2022/08/16 13:03:07;;;;;;;;;;;26.90;99.90;;;;;;5098471;28;19912;-69
2022/08/16 13:05:39;;;;;;;;;;;26.80;99.90;;;;;;5092677;28;19912;-68
2022/08/16 13:08:06;;;;;;;;;;;26.80;99.90;;;;;;5096545;28;19918;-68
2022/08/16 13:10:31;;;;;;;;;;;26.80;99.90;;;;;;5075101;28;19908;-68
2022/08/16 13:12:57;;;;;;;;;;;27.00;99.90;;;;;;5092280;28;19961;-69
2022/08/16 13:15:24;;;;;;;;;;;27.10;99.90;;;;;;5093411;28;19912;-68
2022/08/16 13:17:50;;;;;;;;;;;27.30;99.90;;;;;;5096576;28;20450;-69
2022/08/16 13:20:16;;;;;;;;;;;27.10;99.90;;;;;;5092701;28;19908;-68
2022/08/16 13:22:48;;;;;;;;;;;27.00;99.90;;;;;;5092918;28;19996;-69
2022/08/16 13:25:15;;;;;;;;;;;27.10;99.90;;;;;;5092787;28;19961;-68
2022/08/16 13:27:43;;;;;;;;;;;27.10;99.90;;;;;;5091247;28;19951;-69
2022/08/16 13:30:10;;;;;;;;;;;26.80;99.90;;;;;;5092524;28;19962;-67
2022/08/16 13:32:36;;;;;;;;;;;26.80;99.90;;;;;;5092929;28;19999;-68
2022/08/16 13:35:01;;;;;;;;;;;26.90;99.90;;;;;;5094952;28;19971;-69
2022/08/16 13:37:27;;;;;;;;;;;27.10;99.90;;;;;;5090346;28;19919;-69
2022/08/16 13:39:52;;;;;;;;;;;27.00;99.90;;;;;;5093406;28;19938;-70
2022/08/16 13:42:19;;;;;;;;;;;26.80;99.90;;;;;;5091136;28;19965;-69
2022/08/16 13:44:45;;;;;;;;;;;26.80;99.90;;;;;;5096801;28;19912;-69
2022/08/16 13:47:10;;;;;;;;;;;26.90;99.90;;;;;;5097187;28;20357;-69
2022/08/16 13:49:36;;;;;;;;;;;27.00;99.90;;;;;;5098899;28;20027;-68
2022/08/16 13:52:02;;;;;;;;;;;26.90;99.90;;;;;;5093676;28;20301;-69
2022/08/16 13:54:28;;;;;;;;;;;26.70;99.90;;;;;;5097859;28;20011;-68
2022/08/16 13:56:53;;;;;;;;;;;26.90;99.90;;;;;;5103337;28;19986;-69
2022/08/16 13:59:20;;;;;;;;;;;27.10;99.90;;;;;;5092924;28;19931;-68
2022/08/16 14:01:46;;;;;;;;;;;27.30;99.90;;;;;;5093295;28;20382;-67
2022/08/16 14:04:13;;;;;;;;;;;27.30;99.90;;;;;;5081342;28;19916;-71
2022/08/16 14:06:38;;;;;;;;;;;27.20;99.90;;;;;;5093940;28;19915;-70
2022/08/16 14:09:04;;;;;;;;;;;26.90;99.90;;;;;;5092912;28;20407;-70
2022/08/16 14:11:29;;;;;;;;;;;26.70;99.90;;;;;;5088433;28;19964;-69
2022/08/16 14:13:55;;;;;;;;;;;26.40;99.90;;;;;;5084659;28;19971;-69
2022/08/16 14:16:21;;;;;;;;;;;26.40;99.90;;;;;;5098769;28;19912;-71